Time;durP1;ratioP1;P1;durP2;ratioP2;P2;SDS_P1;SDS_P2;PMS_P1;PMS_P2;Temp;Humidity;BMP_temperature;BMP_pressure;BME280_temperature;BME280_humidity;BME280_pressure;Samples;Min_cycle;Max_cycle;Signal;HPM_P1;HPM_P2
2023/04/02 00:01:01;;;;;;;3.15;1.73;;;;;;;;;;4957818;29;20485;-78
2023/04/02 00:03:43;;;;;;;3.85;2.00;;;;;;;;;;4943648;29;20114;-78
2023/04/02 00:06:33;;;;;;;6.97;2.75;;;;;;;;;;4956577;29;20027;-78
2023/04/02 00:09:04;;;;;;;5.47;2.30;;;;;;;;;;4957107;29;20082;-78
2023/04/02 00:11:38;;;;;;;3.83;2.17;;;;;;;;;;4956767;29;20031;-78
2023/04/02 00:14:05;;;;;;;5.70;3.08;;;;;;;;;;4956922;29;20526;-79
2023/04/02 00:16:31;;;;;;;4.85;2.53;;;;;;;;;;4957281;29;20115;-78
2023/04/02 00:18:59;;;;;;;5.95;2.38;;;;;;;;;;4957204;29;20038;-78
2023/04/02 00:21:27;;;;;;;7.13;3.10;;;;;;;;;;4957836;29;20071;-78
2023/04/02 00:23:54;;;;;;;2.75;1.88;;;;;;;;;;4956268;29;20027;-78
2023/04/02 00:26:29;;;;;;;10.35;2.38;;;;;;;;;;4956555;29;20024;-78
2023/04/02 00:28:55;;;;;;;3.78;2.50;;;;;;;;;;4957124;29;20019;-78
2023/04/02 00:31:22;;;;;;;3.10;2.25;;;;;;;;;;4956201;29;20019;-78
2023/04/02 00:34:07;;;;;;;5.00;2.17;;;;;;;;;;4955677;29;20099;-78
2023/04/02 00:36:34;;;;;;;7.20;2.70;;;;;;;;;;4956255;29;20386;-78
2023/04/02 00:39:02;;;;;;;5.60;2.75;;;;;;;;;;4956817;29;20438;-78
2023/04/02 00:41:30;;;;;;;5.30;2.05;;;;;;;;;;4957538;29;20035;-78
2023/04/02 00:43:57;;;;;;;6.43;2.03;;;;;;;;;;4957684;29;20035;-78
2023/04/02 00:46:28;;;;;;;3.38;1.73;;;;;;;;;;4956436;29;20043;-78
2023/04/02 00:49:08;;;;;;;5.70;2.28;;;;;;;;;;4956134;29;20023;-78
2023/04/02 00:51:36;;;;;;;6.32;2.45;;;;;;;;;;4958381;29;20043;-78
2023/04/02 00:54:04;;;;;;;9.60;1.95;;;;;;;;;;4959033;28;20054;-78
2023/04/02 00:56:37;;;;;;;4.90;2.78;;;;;;;;;;4961033;29;20102;-78
2023/04/02 00:59:04;;;;;;;5.80;2.40;;;;;;;;;;4962988;29;20478;-78
2023/04/02 01:01:35;;;;;;;5.82;2.30;;;;;;;;;;4961044;29;20351;-78
2023/04/02 01:04:02;;;;;;;5.22;1.73;;;;;;;;;;4959525;29;20110;-78
2023/04/02 01:06:30;;;;;;;4.10;2.33;;;;;;;;;;4959453;29;20042;-78
2023/04/02 01:08:56;;;;;;;5.93;2.58;;;;;;;;;;4959386;29;20470;-78
2023/04/02 01:11:41;;;;;;;5.85;2.33;;;;;;;;;;4951089;29;20057;-78
2023/04/02 01:14:13;;;;;;;4.07;1.90;;;;;;;;;;4939990;29;20035;-78
2023/04/02 01:19:47;;;;;;;5.18;2.30;;;;;;;;;;4940621;29;20126;-80
2023/04/02 01:22:29;;;;;;;5.65;2.50;;;;;;;;;;4941602;29;20111;-80
2023/04/02 01:24:59;;;;;;;6.25;2.30;;;;;;;;;;4941630;29;20023;-81
2023/04/02 01:27:43;;;;;;;5.25;1.92;;;;;;;;;;4941527;29;20498;-80
2023/04/02 01:30:11;;;;;;;4.38;2.40;;;;;;;;;;4941143;29;20024;-80
2023/04/02 01:32:38;;;;;;;5.75;2.17;;;;;;;;;;4941178;29;20490;-80
2023/04/02 01:35:04;;;;;;;4.50;2.45;;;;;;;;;;4941487;29;20032;-81
2023/04/02 01:38:03;;;;;;;3.90;1.65;;;;;;;;;;4939943;29;20051;-80
2023/04/02 01:40:35;;;;;;;4.43;1.85;;;;;;;;;;4907969;29;20067;-78
2023/04/02 01:43:20;;;;;;;3.53;1.98;;;;;;;;;;4922472;29;20435;-78
2023/04/02 01:45:46;;;;;;;3.75;1.90;;;;;;;;;;4939214;29;20031;-78
2023/04/02 01:48:18;;;;;;;2.00;1.33;;;;;;;;;;4938947;29;20087;-78
2023/04/02 01:50:48;;;;;;;5.90;2.05;;;;;;;;;;4939306;29;20379;-78
2023/04/02 01:53:15;;;;;;;3.35;1.17;;;;;;;;;;4939431;29;20075;-78
2023/04/02 01:56:01;;;;;;;7.10;1.65;;;;;;;;;;4939299;29;20420;-78
2023/04/02 01:58:30;;;;;;;5.78;1.67;;;;;;;;;;4939206;29;20038;-78
2023/04/02 02:01:15;;;;;;;1.30;1.10;;;;;;;;;;4939232;29;20024;-78
2023/04/02 02:03:42;;;;;;;4.20;2.13;;;;;;;;;;4939343;29;20132;-78
2023/04/02 02:06:12;;;;;;;3.90;1.70;;;;;;;;;;4937859;29;20114;-78
2023/04/02 02:08:41;;;;;;;4.47;1.65;;;;;;;;;;4921728;29;20027;-78
2023/04/02 02:11:11;;;;;;;3.30;1.80;;;;;;;;;;4938572;29;20107;-77
2023/04/02 02:13:37;;;;;;;8.27;1.92;;;;;;;;;;4938785;29;20064;-78
2023/04/02 02:16:04;;;;;;;6.60;1.77;;;;;;;;;;4938817;29;20027;-78
2023/04/02 02:18:30;;;;;;;3.80;1.42;;;;;;;;;;4938422;29;20026;-78
2023/04/02 02:20:57;;;;;;;2.95;1.33;;;;;;;;;;4921315;29;20079;-78
2023/04/02 02:23:24;;;;;;;2.15;1.55;;;;;;;;;;4938226;29;20032;-78
2023/04/02 02:25:50;;;;;;;2.58;1.33;;;;;;;;;;4921301;29;20106;-78
2023/04/02 02:28:16;;;;;;;3.95;1.48;;;;;;;;;;4938560;29;20466;-78
2023/04/02 02:30:53;;;;;;;1.55;1.33;;;;;;;;;;4938150;29;20103;-78
2023/04/02 02:33:25;;;;;;;3.58;1.40;;;;;;;;;;4937995;29;20040;-77
2023/04/02 02:35:56;;;;;;;2.58;1.25;;;;;;;;;;4938146;29;20039;-78
2023/04/02 02:38:31;;;;;;;1.52;1.30;;;;;;;;;;4938042;29;20534;-78
2023/04/02 02:41:01;;;;;;;3.83;1.50;;;;;;;;;;4937906;29;20028;-78
2023/04/02 02:53:22;;;;;;;4.70;1.77;;;;;;;;;;4956941;29;20109;-78
2023/04/02 02:55:53;;;;;;;5.40;1.50;;;;;;;;;;4956934;29;20507;-78
2023/04/02 02:58:22;;;;;;;2.72;1.40;;;;;;;;;;4956888;29;20038;-78
2023/04/02 03:00:49;;;;;;;2.53;1.15;;;;;;;;;;4956820;29;20034;-78
2023/04/02 03:03:26;;;;;;;3.17;1.25;;;;;;;;;;4956779;29;20038;-78
2023/04/02 03:05:53;;;;;;;1.88;0.85;;;;;;;;;;4957168;29;20479;-78
2023/04/02 03:08:23;;;;;;;3.33;1.40;;;;;;;;;;4956770;29;20027;-78
2023/04/02 03:10:49;;;;;;;;;;;;;;;;;;4948956;29;20107;-78
2023/04/02 03:13:24;;;;;;;2.47;1.13;;;;;;;;;;4937401;29;19919;-78
2023/04/02 03:16:09;;;;;;;3.20;1.40;;;;;;;;;;4937405;29;20479;-78
2023/04/02 03:18:35;;;;;;;2.72;1.48;;;;;;;;;;4937406;29;20530;-77
2023/04/02 03:21:19;;;;;;;1.83;0.80;;;;;;;;;;4937200;29;20106;-77
2023/04/02 03:23:47;;;;;;;1.98;1.10;;;;;;;;;;4937140;29;20114;-77
2023/04/02 03:26:50;;;;;;;4.20;1.30;;;;;;;;;;4937023;29;20020;-78
2023/04/02 03:29:38;;;;;;;1.98;0.68;;;;;;;;;;4937127;29;20024;-77
2023/04/02 03:32:15;;;;;;;1.65;1.50;;;;;;;;;;4936893;29;20023;-77
2023/04/02 03:34:45;;;;;;;2.25;0.80;;;;;;;;;;4936905;29;20040;-77
2023/04/02 03:37:15;;;;;;;3.42;1.50;;;;;;;;;;4937136;29;20032;-78
2023/04/02 03:39:43;;;;;;;4.57;1.02;;;;;;;;;;4937347;29;20027;-78
2023/04/02 03:42:14;;;;;;;3.00;1.10;;;;;;;;;;4938749;29;20043;-78
2023/04/02 03:44:52;;;;;;;2.45;0.85;;;;;;;;;;4938065;29;20023;-77
2023/04/02 03:47:31;;;;;;;0.63;0.52;;;;;;;;;;4937865;29;20035;-78
2023/04/02 03:50:03;;;;;;;6.97;1.45;;;;;;;;;;4938453;29;20032;-77
2023/04/02 03:52:29;;;;;;;5.32;0.90;;;;;;;;;;4936555;29;20056;-77
2023/04/02 03:54:56;;;;;;;2.97;1.15;;;;;;;;;;4936956;29;20036;-77
2023/04/02 03:57:42;;;;;;;2.67;1.15;;;;;;;;;;4936577;29;20490;-77
2023/04/02 04:00:18;;;;;;;1.48;0.93;;;;;;;;;;4919308;29;20391;-77
2023/04/02 04:02:51;;;;;;;3.92;0.80;;;;;;;;;;4936459;29;20031;-77
2023/04/02 04:05:26;;;;;;;2.75;1.08;;;;;;;;;;4937099;29;20028;-77
2023/04/02 04:07:53;;;;;;;2.47;1.20;;;;;;;;;;4936458;29;20497;-78
2023/04/02 04:10:22;;;;;;;3.42;0.95;;;;;;;;;;4936614;29;20375;-77
2023/04/02 04:22:33;;;;;;;4.80;1.30;;;;;;;;;;4936597;29;20034;-77
2023/04/02 04:24:59;;;;;;;;;;;;;;;;;;4936642;29;20024;-77
2023/04/02 04:27:34;;;;;;;2.65;1.02;;;;;;;;;;4936131;29;19907;-78
2023/04/02 04:30:06;;;;;;;0.98;0.70;;;;;;;;;;4935841;29;20106;-78
2023/04/02 04:32:35;;;;;;;3.03;0.88;;;;;;;;;;4936297;29;20023;-77
2023/04/02 04:35:07;;;;;;;2.30;0.93;;;;;;;;;;4936255;29;20543;-77
2023/04/02 04:37:38;;;;;;;4.72;0.98;;;;;;;;;;4936238;29;20028;-77
2023/04/02 04:40:11;;;;;;;2.17;0.82;;;;;;;;;;4936184;29;20031;-77
2023/04/02 04:42:39;;;;;;;2.20;0.77;;;;;;;;;;4936488;29;20079;-77
2023/04/02 04:45:05;;;;;;;4.55;1.52;;;;;;;;;;4936046;29;20471;-77
2023/04/02 04:47:33;;;;;;;1.98;0.82;;;;;;;;;;4936038;29;20038;-77
2023/04/02 04:50:02;;;;;;;2.47;1.10;;;;;;;;;;4935999;29;20058;-77
2023/04/02 04:52:29;;;;;;;2.47;0.90;;;;;;;;;;4935989;29;20131;-77
2023/04/02 04:54:55;;;;;;;4.40;0.98;;;;;;;;;;4936122;29;20122;-77
2023/04/02 05:00:49;;;;;;;2.92;0.88;;;;;;;;;;4936411;29;20082;-78
2023/04/02 05:03:15;;;;;;;1.27;0.90;;;;;;;;;;4919114;29;20053;-77
2023/04/02 05:05:42;;;;;;;1.88;0.88;;;;;;;;;;4936150;29;20027;-77
2023/04/02 05:08:14;;;;;;;4.78;1.42;;;;;;;;;;4952071;29;20023;-77
2023/04/02 05:10:54;;;;;;;7.75;1.25;;;;;;;;;;4955080;29;20032;-77
2023/04/02 05:13:23;;;;;;;2.17;0.50;;;;;;;;;;4954869;29;20039;-77
2023/04/02 05:15:53;;;;;;;2.72;0.65;;;;;;;;;;4955543;29;20418;-77
2023/04/02 05:18:19;;;;;;;;;;;;;;;;;;4955710;29;20031;-77
2023/04/02 05:21:05;;;;;;;1.08;0.70;;;;;;;;;;4958131;29;19906;-79
2023/04/02 05:23:36;;;;;;;1.65;0.68;;;;;;;;;;4958076;29;20028;-80
2023/04/02 05:26:13;;;;;;;3.67;0.90;;;;;;;;;;4955369;29;20055;-80
2023/04/02 05:28:57;;;;;;;2.22;0.70;;;;;;;;;;4958673;29;20394;-80
2023/04/02 05:31:24;;;;;;;3.28;0.80;;;;;;;;;;4959562;29;20028;-80
2023/04/02 05:33:51;;;;;;;2.13;0.65;;;;;;;;;;4959103;29;20027;-80
2023/04/02 05:36:19;;;;;;;5.72;1.05;;;;;;;;;;4959351;29;20375;-80
2023/04/02 05:38:46;;;;;;;0.68;0.38;;;;;;;;;;4958467;29;20063;-80
2023/04/02 05:41:21;;;;;;;13.23;2.65;;;;;;;;;;4958932;28;20043;-80
2023/04/02 05:43:49;;;;;;;2.90;1.10;;;;;;;;;;4941332;29;20479;-80
2023/04/02 05:46:16;;;;;;;2.72;0.45;;;;;;;;;;4942672;29;20054;-79
2023/04/02 05:48:44;;;;;;;2.92;1.13;;;;;;;;;;4943047;29;20102;-79
2023/04/02 05:51:15;;;;;;;6.80;1.70;;;;;;;;;;4943089;29;20031;-80
2023/04/02 05:53:46;;;;;;;3.47;0.75;;;;;;;;;;4942133;29;20062;-80
2023/04/02 05:56:18;;;;;;;1.98;0.82;;;;;;;;;;4941110;29;20035;-80
2023/04/02 05:58:47;;;;;;;1.80;0.65;;;;;;;;;;4940534;29;20115;-80
2023/04/02 06:01:16;;;;;;;3.50;0.73;;;;;;;;;;4942414;29;20031;-80
2023/04/02 06:03:45;;;;;;;1.25;0.50;;;;;;;;;;4942237;29;20035;-80
2023/04/02 06:06:34;;;;;;;5.55;0.95;;;;;;;;;;4940945;29;20386;-77
2023/04/02 06:09:04;;;;;;;1.00;0.45;;;;;;;;;;4954653;29;20138;-78
2023/04/02 06:11:40;;;;;;;3.53;0.70;;;;;;;;;;4957669;29;20023;-77
2023/04/02 06:14:07;;;;;;;2.83;1.15;;;;;;;;;;4957835;29;20035;-78
2023/04/02 06:16:35;;;;;;;1.30;0.43;;;;;;;;;;4957490;29;20031;-77
2023/04/02 06:19:02;;;;;;;4.10;0.80;;;;;;;;;;4958177;29;20026;-80
2023/04/02 06:21:28;;;;;;;1.13;0.50;;;;;;;;;;4962433;29;20028;-80
2023/04/02 06:24:11;;;;;;;5.35;1.15;;;;;;;;;;4961009;29;20049;-80
2023/04/02 06:26:41;;;;;;;1.42;0.80;;;;;;;;;;4959862;29;20051;-80
2023/04/02 06:29:12;;;;;;;1.75;0.80;;;;;;;;;;4961244;29;20027;-80
2023/04/02 06:31:44;;;;;;;2.13;0.70;;;;;;;;;;4960463;29;20114;-80
2023/04/02 06:34:17;;;;;;;4.20;1.13;;;;;;;;;;4959014;29;20134;-80
2023/04/02 06:36:44;;;;;;;3.53;0.90;;;;;;;;;;4942203;29;20379;-80
2023/04/02 06:39:14;;;;;;;1.83;0.63;;;;;;;;;;4952942;29;20394;-80
2023/04/02 06:41:40;;;;;;;;;;;;;;;;;;4946943;29;20031;-79
2023/04/02 06:44:12;;;;;;;3.55;0.80;;;;;;;;;;4949116;29;19973;-80
2023/04/02 06:46:43;;;;;;;1.20;0.43;;;;;;;;;;4945524;29;20054;-79
2023/04/02 06:49:13;;;;;;;3.28;1.25;;;;;;;;;;4955096;29;20489;-79
2023/04/02 06:51:50;;;;;;;3.00;0.73;;;;;;;;;;4949819;28;20642;-79
2023/04/02 06:54:17;;;;;;;1.80;1.00;;;;;;;;;;4959708;29;20053;-79
2023/04/02 06:56:45;;;;;;;4.95;1.00;;;;;;;;;;4958949;28;20032;-79
2023/04/02 06:59:11;;;;;;;3.58;1.05;;;;;;;;;;4958608;29;20028;-79
2023/04/02 07:01:43;;;;;;;4.97;1.13;;;;;;;;;;4957000;29;20015;-79
2023/04/02 07:04:10;;;;;;;0.90;0.77;;;;;;;;;;4959256;29;20534;-80
2023/04/02 07:06:36;;;;;;;3.10;1.10;;;;;;;;;;4939295;29;20023;-79
2023/04/02 07:09:03;;;;;;;1.98;0.73;;;;;;;;;;4953411;29;20034;-79
2023/04/02 07:11:30;;;;;;;1.75;0.80;;;;;;;;;;4919394;29;20024;-79
2023/04/02 07:13:56;;;;;;;2.28;0.90;;;;;;;;;;4936222;29;20035;-79
2023/04/02 07:16:24;;;;;;;3.67;1.10;;;;;;;;;;4936736;29;20119;-77
2023/04/02 07:18:50;;;;;;;2.67;0.70;;;;;;;;;;4933884;29;20074;-77
2023/04/02 07:21:16;;;;;;;4.00;0.90;;;;;;;;;;4923613;29;20117;-77
2023/04/02 07:23:42;;;;;;;3.25;0.88;;;;;;;;;;4952763;29;20111;-78
2023/04/02 07:26:12;;;;;;;1.95;0.82;;;;;;;;;;4952193;28;20051;-77
2023/04/02 07:28:38;;;;;;;3.08;0.90;;;;;;;;;;4952368;28;20444;-77
2023/04/02 07:31:09;;;;;;;1.10;0.45;;;;;;;;;;4952856;28;20489;-77
2023/04/02 07:33:35;;;;;;;1.67;0.82;;;;;;;;;;4948021;29;20040;-77
2023/04/02 07:36:01;;;;;;;1.35;0.68;;;;;;;;;;4942763;29;20383;-78
2023/04/02 07:38:27;;;;;;;1.50;0.50;;;;;;;;;;4953228;29;20027;-78
2023/04/02 07:40:53;;;;;;;3.15;0.70;;;;;;;;;;4954240;28;20482;-78
2023/04/02 07:43:20;;;;;;;1.50;0.45;;;;;;;;;;4953729;28;20113;-78
2023/04/02 07:45:46;;;;;;;2.30;0.70;;;;;;;;;;4954331;29;20015;-78
2023/04/02 07:48:13;;;;;;;2.45;0.57;;;;;;;;;;4951914;28;20042;-78
2023/04/02 07:50:39;;;;;;;2.47;0.70;;;;;;;;;;4953873;28;20046;-78
2023/04/02 07:53:07;;;;;;;2.92;0.55;;;;;;;;;;4948856;28;20056;-77
2023/04/02 07:55:33;;;;;;;2.50;0.80;;;;;;;;;;4934528;29;20020;-78
2023/04/02 07:57:59;;;;;;;2.10;0.75;;;;;;;;;;4934560;29;20103;-78
2023/04/02 08:00:27;;;;;;;1.58;0.70;;;;;;;;;;4934358;29;20385;-78
2023/04/02 08:02:53;;;;;;;3.75;0.65;;;;;;;;;;4934350;29;20027;-78
2023/04/02 08:05:19;;;;;;;1.65;0.52;;;;;;;;;;4964265;28;20024;-78
2023/04/02 08:07:52;;;;;;;4.00;0.82;;;;;;;;;;4934106;29;20367;-78
2023/04/02 08:10:18;;;;;;;3.00;0.70;;;;;;;;;;4915533;29;20114;-78
2023/04/02 08:12:44;;;;;;;1.65;0.50;;;;;;;;;;4915380;29;20444;-78
2023/04/02 08:15:14;;;;;;;3.08;0.70;;;;;;;;;;4915841;29;20547;-78
2023/04/02 08:17:41;;;;;;;7.95;1.63;;;;;;;;;;4915813;29;20036;-78
2023/04/02 08:20:09;;;;;;;2.53;0.55;;;;;;;;;;4917450;29;20020;-78
2023/04/02 08:22:35;;;;;;;3.00;0.65;;;;;;;;;;4929686;29;20024;-78
2023/04/02 08:25:01;;;;;;;1.35;0.63;;;;;;;;;;4914855;29;20475;-78
2023/04/02 08:27:27;;;;;;;2.25;0.70;;;;;;;;;;4929467;29;20033;-77
2023/04/02 08:29:53;;;;;;;2.78;0.80;;;;;;;;;;4916029;29;20039;-78
2023/04/02 08:32:20;;;;;;;3.88;0.82;;;;;;;;;;4914933;29;20083;-78
2023/04/02 08:34:46;;;;;;;2.22;0.63;;;;;;;;;;4914971;29;20409;-77
2023/04/02 08:37:13;;;;;;;2.78;0.65;;;;;;;;;;4914697;29;20036;-77
2023/04/02 08:39:40;;;;;;;1.40;0.47;;;;;;;;;;4915479;29;20036;-77
2023/04/02 08:42:12;;;;;;;3.35;0.55;;;;;;;;;;4915137;29;20020;-77
2023/04/02 08:45:00;;;;;;;2.28;0.70;;;;;;;;;;4915005;29;20032;-77
2023/04/02 08:47:29;;;;;;;2.38;0.52;;;;;;;;;;4915385;29;20056;-77
2023/04/02 08:50:02;;;;;;;3.72;0.90;;;;;;;;;;4915377;29;20055;-77
2023/04/02 08:52:31;;;;;;;2.78;0.73;;;;;;;;;;4918196;29;20522;-77
2023/04/02 08:54:59;;;;;;;2.60;0.60;;;;;;;;;;4933613;29;20400;-77
2023/04/02 08:57:36;;;;;;;1.48;0.65;;;;;;;;;;4933793;29;20027;-77
2023/04/02 09:00:26;;;;;;;2.92;0.55;;;;;;;;;;4934702;29;20028;-77
2023/04/02 09:02:59;;;;;;;1.80;0.70;;;;;;;;;;4942793;29;20039;-77
2023/04/02 09:05:27;;;;;;;2.70;0.90;;;;;;;;;;4956385;28;20361;-80
2023/04/02 09:07:55;;;;;;;3.78;1.85;;;;;;;;;;4957809;28;20505;-80
2023/04/02 09:10:23;;;;;;;3.72;1.98;;;;;;;;;;4957372;29;20098;-80
2023/04/02 09:12:51;;;;;;;1.65;0.70;;;;;;;;;;4961604;28;20597;-80
2023/04/02 09:15:33;;;;;;;1.25;0.73;;;;;;;;;;4965490;28;20026;-80
2023/04/02 09:18:04;;;;;;;2.50;0.70;;;;;;;;;;4962594;28;20367;-79
2023/04/02 09:20:30;;;;;;;2.20;1.00;;;;;;;;;;4970182;29;20034;-80
2023/04/02 09:22:57;;;;;;;3.53;1.42;;;;;;;;;;4962530;29;20031;-79
2023/04/02 09:25:29;;;;;;;1.23;0.60;;;;;;;;;;4956727;28;20030;-79
2023/04/02 09:27:56;;;;;;;1.40;0.57;;;;;;;;;;4956739;28;20030;-79
2023/04/02 09:30:28;;;;;;;5.57;1.85;;;;;;;;;;4942147;29;20036;-79
2023/04/02 09:33:06;;;;;;;3.22;1.20;;;;;;;;;;4937355;29;20028;-79
2023/04/02 09:35:32;;;;;;;3.50;0.95;;;;;;;;;;4937556;29;20100;-77
2023/04/02 09:38:17;;;;;;;2.42;1.13;;;;;;;;;;4942888;29;20379;-77
2023/04/02 09:40:45;;;;;;;4.05;1.42;;;;;;;;;;4956116;29;20031;-77
2023/04/02 09:43:13;;;;;;;3.97;1.30;;;;;;;;;;4955482;29;20055;-78
2023/04/02 09:45:41;;;;;;;3.17;1.05;;;;;;;;;;4955965;29;20031;-77
2023/04/02 09:48:39;;;;;;;2.58;0.90;;;;;;;;;;4955786;29;20397;-77
2023/04/02 09:51:16;;;;;;;3.72;0.95;;;;;;;;;;4913180;29;20541;-77
2023/04/02 09:53:47;;;;;;;1.92;0.85;;;;;;;;;;4955231;29;20397;-77
2023/04/02 09:56:15;;;;;;;2.33;0.60;;;;;;;;;;4955837;29;20031;-77
2023/04/02 09:58:43;;;;;;;1.50;1.20;;;;;;;;;;4955745;29;20073;-77
2023/04/02 10:01:26;;;;;;;1.27;0.50;;;;;;;;;;4955557;29;20306;-77
2023/04/02 10:03:52;;;;;;;1.23;0.70;;;;;;;;;;4955387;28;20082;-77
2023/04/02 10:06:18;;;;;;;3.30;0.70;;;;;;;;;;4956177;28;20032;-77
2023/04/02 10:08:45;;;;;;;1.55;0.73;;;;;;;;;;4955780;29;20031;-78
2023/04/02 10:11:17;;;;;;;2.35;0.47;;;;;;;;;;4955383;29;20031;-78
2023/04/02 10:13:58;;;;;;;2.65;0.60;;;;;;;;;;4955584;28;20031;-79
2023/04/02 10:16:33;;;;;;;2.47;1.20;;;;;;;;;;4959063;29;20329;-79
2023/04/02 10:18:59;;;;;;;2.45;0.50;;;;;;;;;;4958316;29;20050;-80
2023/04/02 10:21:30;;;;;;;2.88;0.88;;;;;;;;;;4958619;28;20026;-80
2023/04/02 10:23:58;;;;;;;0.95;0.32;;;;;;;;;;4957641;29;20027;-79
2023/04/02 10:26:27;;;;;;;1.15;0.45;;;;;;;;;;4955454;28;20101;-79
2023/04/02 10:29:13;;;;;;;1.92;0.45;;;;;;;;;;4954549;29;20142;-79
2023/04/02 10:31:40;;;;;;;1.90;0.50;;;;;;;;;;4925467;29;20104;-79
2023/04/02 10:34:26;;;;;;;2.92;0.70;;;;;;;;;;4955247;29;20035;-79
2023/04/02 10:37:06;;;;;;;3.17;0.50;;;;;;;;;;4954937;29;20120;-77
2023/04/02 10:39:37;;;;;;;1.20;0.50;;;;;;;;;;4954675;29;20023;-77
2023/04/02 10:42:03;;;;;;;0.40;0.40;;;;;;;;;;4954742;28;20031;-77
2023/04/02 10:44:49;;;;;;;2.05;0.98;;;;;;;;;;4954821;28;20058;-77
2023/04/02 10:47:18;;;;;;;0.47;0.32;;;;;;;;;;4954514;29;20488;-77
2023/04/02 10:50:00;;;;;;;1.98;0.70;;;;;;;;;;4954685;28;20031;-77
2023/04/02 10:52:29;;;;;;;1.92;0.50;;;;;;;;;;4955711;28;20529;-80
2023/04/02 10:55:03;;;;;;;0.80;0.40;;;;;;;;;;4957919;29;20039;-79
2023/04/02 10:57:40;;;;;;;0.32;0.30;;;;;;;;;;4956622;28;20105;-80
2023/04/02 11:00:14;;;;;;;1.40;0.20;;;;;;;;;;4942074;29;20395;-80
2023/04/02 11:02:40;;;;;;;0.80;0.40;;;;;;;;;;4939266;29;20024;-80
2023/04/02 11:05:12;;;;;;;2.80;0.52;;;;;;;;;;4937756;29;20102;-80
2023/04/02 11:07:45;;;;;;;2.20;0.30;;;;;;;;;;4936249;29;20035;-79
2023/04/02 11:10:15;;;;;;;0.20;0.20;;;;;;;;;;4937076;29;20059;-79
2023/04/02 11:12:49;;;;;;;2.95;0.40;;;;;;;;;;4938059;29;20038;-80
2023/04/02 11:15:19;;;;;;;1.98;0.60;;;;;;;;;;4936642;29;20040;-80
2023/04/02 11:17:45;;;;;;;;;;;;;;;;;;4938854;29;20554;-79
2023/04/02 11:20:30;;;;;;;1.27;0.40;;;;;;;;;;4939237;29;19938;-80
2023/04/02 11:23:25;;;;;;;0.70;0.35;;;;;;;;;;4938883;29;20028;-80
2023/04/02 11:25:51;;;;;;;1.45;0.50;;;;;;;;;;4926034;29;20090;-80
2023/04/02 11:28:27;;;;;;;0.32;0.30;;;;;;;;;;4941719;29;20032;-80
2023/04/02 11:30:53;;;;;;;0.95;0.35;;;;;;;;;;4953848;28;20391;-77
2023/04/02 11:33:32;;;;;;;1.80;0.30;;;;;;;;;;4953672;29;20108;-77
2023/04/02 11:35:58;;;;;;;0.68;0.38;;;;;;;;;;4954255;29;20031;-77
2023/04/02 11:38:24;;;;;;;2.78;0.50;;;;;;;;;;4937297;29;20024;-77
2023/04/02 11:40:50;;;;;;;1.00;0.30;;;;;;;;;;4935049;29;20027;-78
2023/04/02 11:43:32;;;;;;;0.30;0.20;;;;;;;;;;4934648;29;20071;-78
2023/04/02 11:46:18;;;;;;;1.88;0.55;;;;;;;;;;4934500;29;20028;-77
2023/04/02 11:48:44;;;;;;;2.15;0.32;;;;;;;;;;4924299;29;20044;-78
2023/04/02 11:51:22;;;;;;;0.65;0.20;;;;;;;;;;4934301;29;20352;-78
2023/04/02 11:53:57;;;;;;;0.73;0.40;;;;;;;;;;4935686;29;20498;-77
2023/04/02 11:56:26;;;;;;;2.28;0.70;;;;;;;;;;4937104;29;20023;-77
2023/04/02 11:58:58;;;;;;;3.28;0.60;;;;;;;;;;4936749;29;20278;-79
2023/04/02 12:01:33;;;;;;;2.47;0.90;;;;;;;;;;4939772;29;20028;-78
2023/04/02 12:04:17;;;;;;;3.08;0.82;;;;;;;;;;4947784;29;20027;-79
2023/04/02 12:06:45;;;;;;;2.05;0.70;;;;;;;;;;4943054;29;20027;-78
2023/04/02 12:09:17;;;;;;;1.48;0.40;;;;;;;;;;4926751;29;20114;-78
2023/04/02 12:11:44;;;;;;;1.63;0.50;;;;;;;;;;4927388;29;20026;-78
2023/04/02 12:14:28;;;;;;;0.90;0.40;;;;;;;;;;4947747;29;20050;-79
2023/04/02 12:16:54;;;;;;;2.33;0.60;;;;;;;;;;4929865;29;20046;-78
2023/04/02 12:19:21;;;;;;;1.98;0.55;;;;;;;;;;4932277;29;20371;-79
2023/04/02 12:21:48;;;;;;;2.40;0.90;;;;;;;;;;4958325;28;20548;-79
2023/04/02 12:24:19;;;;;;;1.70;0.60;;;;;;;;;;4959150;29;20031;-79
2023/04/02 12:26:46;;;;;;;3.05;0.95;;;;;;;;;;4954789;29;20027;-79
2023/04/02 12:29:28;;;;;;;0.77;0.32;;;;;;;;;;4943667;29;20024;-78
2023/04/02 12:31:55;;;;;;;5.32;1.38;;;;;;;;;;4934545;29;20107;-78
2023/04/02 12:34:22;;;;;;;3.83;1.27;;;;;;;;;;4934277;29;20114;-78
2023/04/02 12:37:11;;;;;;;1.30;0.60;;;;;;;;;;4934758;29;20026;-79
2023/04/02 12:39:37;;;;;;;1.80;0.50;;;;;;;;;;4935061;29;20057;-79
2023/04/02 12:42:03;;;;;;;1.02;0.50;;;;;;;;;;4934113;29;20031;-78
2023/04/02 12:44:30;;;;;;;2.03;0.52;;;;;;;;;;4934355;29;20032;-78
2023/04/02 12:46:57;;;;;;;1.30;0.60;;;;;;;;;;4934784;29;20024;-78
2023/04/02 12:49:35;;;;;;;0.70;0.70;;;;;;;;;;4933851;29;20028;-78
2023/04/02 12:52:02;;;;;;;3.08;0.73;;;;;;;;;;4944439;29;20313;-79
2023/04/02 12:54:30;;;;;;;2.25;0.45;;;;;;;;;;4940976;29;20039;-77
2023/04/02 12:57:16;;;;;;;3.50;0.57;;;;;;;;;;4937553;29;20055;-78
2023/04/02 12:59:42;;;;;;;1.02;0.50;;;;;;;;;;4939275;29;20027;-80
2023/04/02 13:02:19;;;;;;;3.75;0.70;;;;;;;;;;4943084;29;20111;-80
2023/04/02 13:04:49;;;;;;;2.35;0.45;;;;;;;;;;4945391;29;20024;-80
2023/04/02 13:07:16;;;;;;;2.17;0.47;;;;;;;;;;4949297;29;20038;-80
2023/04/02 13:09:45;;;;;;;1.58;0.50;;;;;;;;;;4958065;28;20019;-80
2023/04/02 13:12:25;;;;;;;0.88;0.43;;;;;;;;;;4959988;28;20031;-80
2023/04/02 13:14:52;;;;;;;2.83;0.55;;;;;;;;;;4957394;28;20371;-80
2023/04/02 13:17:37;;;;;;;1.45;0.40;;;;;;;;;;4957342;28;20030;-80
2023/04/02 13:20:23;;;;;;;2.35;0.60;;;;;;;;;;4959378;28;20027;-79
2023/04/02 13:22:49;;;;;;;1.95;0.68;;;;;;;;;;4959229;29;20035;-79
2023/04/02 13:25:15;;;;;;;2.10;0.68;;;;;;;;;;4959351;29;20032;-79
2023/04/02 13:27:41;;;;;;;0.95;0.60;;;;;;;;;;4941695;29;20035;-80
2023/04/02 13:30:10;;;;;;;1.52;0.57;;;;;;;;;;4941276;29;20035;-81
2023/04/02 13:32:36;;;;;;;0.80;0.30;;;;;;;;;;4954134;29;20022;-80
2023/04/02 13:35:03;;;;;;;0.98;0.32;;;;;;;;;;4947157;29;20442;-80
2023/04/02 13:37:29;;;;;;;3.35;0.50;;;;;;;;;;4951913;28;20034;-81
2023/04/02 13:39:55;;;;;;;3.22;0.50;;;;;;;;;;4948340;29;20050;-81
2023/04/02 13:42:21;;;;;;;3.00;0.73;;;;;;;;;;4948182;29;20395;-81
2023/04/02 13:44:47;;;;;;;1.70;0.55;;;;;;;;;;4957803;29;20031;-80
2023/04/02 13:47:14;;;;;;;1.15;0.55;;;;;;;;;;4960425;29;20023;-81
2023/04/02 13:49:40;;;;;;;1.45;0.82;;;;;;;;;;4943858;28;20489;-80
2023/04/02 13:52:09;;;;;;;1.27;0.45;;;;;;;;;;4959467;28;20479;-80
2023/04/02 13:54:47;;;;;;;1.70;0.45;;;;;;;;;;4945990;29;20032;-80
2023/04/02 13:57:14;;;;;;;1.00;0.45;;;;;;;;;;4958982;28;20035;-82
2023/04/02 13:59:40;;;;;;;1.73;0.70;;;;;;;;;;4944599;29;20330;-81
2023/04/02 14:02:09;;;;;;;2.83;0.75;;;;;;;;;;4953286;28;20477;-80
2023/04/02 14:04:38;;;;;;;0.75;0.43;;;;;;;;;;4954634;29;20047;-81
2023/04/02 14:07:15;;;;;;;1.13;0.43;;;;;;;;;;4938924;29;20038;-80
2023/04/02 14:09:49;;;;;;;0.68;0.60;;;;;;;;;;4944674;29;20035;-80
2023/04/02 14:12:21;;;;;;;5.43;1.00;;;;;;;;;;4927307;29;20028;-80
2023/04/02 14:15:06;;;;;;;2.00;0.35;;;;;;;;;;4947271;28;20028;-81
2023/04/02 14:17:51;;;;;;;0.95;0.60;;;;;;;;;;4939000;29;20090;-81
2023/04/02 14:20:16;;;;;;;1.50;0.60;;;;;;;;;;4958780;28;20373;-80
2023/04/02 14:22:49;;;;;;;2.97;0.80;;;;;;;;;;4959396;28;20088;-80
2023/04/02 14:25:15;;;;;;;0.90;0.38;;;;;;;;;;4958957;28;20027;-80
2023/04/02 14:27:52;;;;;;;1.20;0.60;;;;;;;;;;4947360;28;20452;-80
2023/04/02 14:30:41;;;;;;;2.47;0.70;;;;;;;;;;4977690;28;20054;-80
2023/04/02 14:33:16;;;;;;;3.35;1.05;;;;;;;;;;4960118;28;20039;-80
2023/04/02 14:35:46;;;;;;;2.47;0.82;;;;;;;;;;4958055;28;20038;-80
2023/04/02 14:38:25;;;;;;;1.08;0.52;;;;;;;;;;4963339;28;20039;-80
2023/04/02 14:41:02;;;;;;;1.15;0.47;;;;;;;;;;4955266;28;20401;-80
2023/04/02 14:43:35;;;;;;;2.05;0.40;;;;;;;;;;4956350;28;20078;-80
2023/04/02 14:46:03;;;;;;;2.45;0.57;;;;;;;;;;4952816;29;20059;-80
2023/04/02 14:48:45;;;;;;;3.10;1.20;;;;;;;;;;4947569;28;20023;-78
2023/04/02 14:51:30;;;;;;;2.60;0.90;;;;;;;;;;4945353;29;20542;-78
2023/04/02 14:54:22;;;;;;;2.05;0.93;;;;;;;;;;4946170;29;20047;-78
2023/04/02 14:56:50;;;;;;;1.48;0.88;;;;;;;;;;4944659;28;20042;-79
2023/04/02 14:59:16;;;;;;;1.45;0.60;;;;;;;;;;4957143;28;20039;-79
2023/04/02 15:01:45;;;;;;;2.75;0.77;;;;;;;;;;4966552;28;20548;-78
2023/04/02 15:04:13;;;;;;;2.17;0.77;;;;;;;;;;4954903;28;20035;-78
2023/04/02 15:06:48;;;;;;;1.38;0.68;;;;;;;;;;4953618;29;20023;-77
2023/04/02 15:09:26;;;;;;;1.00;0.52;;;;;;;;;;4953831;29;20035;-77
2023/04/02 15:11:56;;;;;;;1.95;0.52;;;;;;;;;;4944929;29;20055;-77
2023/04/02 15:14:25;;;;;;;0.50;0.50;;;;;;;;;;4952918;28;20445;-77
2023/04/02 15:16:51;;;;;;;1.40;0.50;;;;;;;;;;4956063;28;20478;-77
2023/04/02 15:19:18;;;;;;;1.83;0.70;;;;;;;;;;4952530;29;20038;-77
2023/04/02 15:22:03;;;;;;;1.52;0.60;;;;;;;;;;4931278;29;20114;-77
2023/04/02 15:24:32;;;;;;;2.85;0.90;;;;;;;;;;4949521;29;20023;-77
2023/04/02 15:27:16;;;;;;;1.58;0.63;;;;;;;;;;4940939;28;20053;-78
2023/04/02 15:30:00;;;;;;;2.67;0.80;;;;;;;;;;4948368;28;20027;-78
2023/04/02 15:32:26;;;;;;;1.98;0.60;;;;;;;;;;4952477;29;20039;-77
2023/04/02 15:34:55;;;;;;;2.65;0.75;;;;;;;;;;4952879;29;20383;-77
2023/04/02 15:37:31;;;;;;;3.70;0.80;;;;;;;;;;4953546;29;20034;-78